Terminal Aerodrome Forecast
Issued by NWS

Home | Current Version | Previous Version | Text Only | Print | Product List | Glossary On
Versions: 1 2 3 4 5 6 7 8 9 10 11 12 13 14 15 16 17 18 19 20 21 22
977
FTUS42 KFFC 181305 AAA
TAFFTY
TAF AMD
KFTY 181305Z 1813/1912 21005KT P6SM SCT015 OVC050
     FM181600 31008KT P6SM BKN040
     FM190000 31004KT P6SM BKN250
     FM191000 VRB02KT P6SM SCT015 BKN120=

USA.gov is the U.S. government's official web portal to all federal, state and local government web resources and services.